sensor_id;sensor_type;location;lat;lon;timestamp;P1;durP1;ratioP1;P2;durP2;ratioP2
22768;SDS011;13001;51.968;5.918;2023-03-01T00:00:09;806.67;;;731.33;;
22768;SDS011;13001;51.968;5.918;2023-03-01T00:02:36;783.30;;;710.97;;
22768;SDS011;13001;51.968;5.918;2023-03-01T00:05:04;801.73;;;727.90;;
22768;SDS011;13001;51.968;5.918;2023-03-01T00:07:31;843.63;;;765.97;;
22768;SDS011;13001;51.968;5.918;2023-03-01T00:09:59;825.10;;;748.27;;
22768;SDS011;13001;51.968;5.918;2023-03-01T00:12:26;843.67;;;765.33;;
22768;SDS011;13001;51.968;5.918;2023-03-01T00:14:53;871.13;;;789.10;;
22768;SDS011;13001;51.968;5.918;2023-03-01T00:17:21;865.13;;;783.93;;
22768;SDS011;13001;51.968;5.918;2023-03-01T00:19:48;849.33;;;769.93;;
22768;SDS011;13001;51.968;5.918;2023-03-01T00:22:16;869.47;;;787.37;;
22768;SDS011;13001;51.968;5.918;2023-03-01T00:24:45;848.43;;;767.93;;
22768;SDS011;13001;51.968;5.918;2023-03-01T00:27:12;874.83;;;791.27;;
22768;SDS011;13001;51.968;5.918;2023-03-01T00:29:39;890.00;;;804.77;;
22768;SDS011;13001;51.968;5.918;2023-03-01T00:32:06;888.07;;;803.60;;
22768;SDS011;13001;51.968;5.918;2023-03-01T00:34:33;896.13;;;810.97;;
22768;SDS011;13001;51.968;5.918;2023-03-01T00:37:02;902.57;;;817.33;;
22768;SDS011;13001;51.968;5.918;2023-03-01T00:39:31;919.80;;;831.37;;
22768;SDS011;13001;51.968;5.918;2023-03-01T00:41:59;908.70;;;821.23;;
22768;SDS011;13001;51.968;5.918;2023-03-01T00:44:26;908.40;;;823.00;;
22768;SDS011;13001;51.968;5.918;2023-03-01T00:46:54;910.73;;;826.60;;
22768;SDS011;13001;51.968;5.918;2023-03-01T00:49:21;937.10;;;849.37;;
22768;SDS011;13001;51.968;5.918;2023-03-01T00:51:50;932.97;;;846.57;;
22768;SDS011;13001;51.968;5.918;2023-03-01T00:54:17;931.13;;;844.43;;
22768;SDS011;13001;51.968;5.918;2023-03-01T00:56:45;940.90;;;852.60;;
22768;SDS011;13001;51.968;5.918;2023-03-01T00:59:12;922.73;;;837.50;;
22768;SDS011;13001;51.968;5.918;2023-03-01T01:01:39;920.17;;;834.03;;
22768;SDS011;13001;51.968;5.918;2023-03-01T01:04:08;923.63;;;838.10;;
22768;SDS011;13001;51.968;5.918;2023-03-01T01:06:37;926.70;;;842.10;;
22768;SDS011;13001;51.968;5.918;2023-03-01T01:09:05;901.70;;;820.17;;
22768;SDS011;13001;51.968;5.918;2023-03-01T01:11:33;885.87;;;806.00;;
22768;SDS011;13001;51.968;5.918;2023-03-01T01:14:02;896.50;;;815.37;;
22768;SDS011;13001;51.968;5.918;2023-03-01T01:16:30;900.00;;;818.83;;
22768;SDS011;13001;51.968;5.918;2023-03-01T01:18:57;907.10;;;827.20;;
22768;SDS011;13001;51.968;5.918;2023-03-01T01:21:25;884.17;;;806.27;;
22768;SDS011;13001;51.968;5.918;2023-03-01T01:23:53;885.27;;;806.93;;
22768;SDS011;13001;51.968;5.918;2023-03-01T01:26:22;889.43;;;812.13;;
22768;SDS011;13001;51.968;5.918;2023-03-01T01:28:50;898.00;;;818.53;;
22768;SDS011;13001;51.968;5.918;2023-03-01T01:31:17;896.13;;;816.50;;
22768;SDS011;13001;51.968;5.918;2023-03-01T01:33:45;912.57;;;831.50;;
22768;SDS011;13001;51.968;5.918;2023-03-01T01:36:13;902.97;;;822.40;;
22768;SDS011;13001;51.968;5.918;2023-03-01T01:38:40;926.17;;;843.23;;
22768;SDS011;13001;51.968;5.918;2023-03-01T01:41:09;918.43;;;836.83;;
22768;SDS011;13001;51.968;5.918;2023-03-01T01:43:39;912.67;;;831.67;;
22768;SDS011;13001;51.968;5.918;2023-03-01T01:46:15;933.73;;;849.47;;
22768;SDS011;13001;51.968;5.918;2023-03-01T01:48:43;926.97;;;843.07;;
22768;SDS011;13001;51.968;5.918;2023-03-01T01:51:13;935.07;;;850.90;;
22768;SDS011;13001;51.968;5.918;2023-03-01T01:53:39;942.90;;;856.33;;
22768;SDS011;13001;51.968;5.918;2023-03-01T01:56:07;954.10;;;866.27;;
22768;SDS011;13001;51.968;5.918;2023-03-01T01:58:35;951.13;;;861.90;;
22768;SDS011;13001;51.968;5.918;2023-03-01T02:01:04;969.13;;;877.73;;
22768;SDS011;13001;51.968;5.918;2023-03-01T02:03:32;946.40;;;858.53;;
22768;SDS011;13001;51.968;5.918;2023-03-01T02:06:03;961.23;;;870.93;;
22768;SDS011;13001;51.968;5.918;2023-03-01T02:08:32;988.17;;;893.23;;
22768;SDS011;13001;51.968;5.918;2023-03-01T02:10:59;986.77;;;891.37;;
22768;SDS011;13001;51.968;5.918;2023-03-01T02:13:30;960.73;;;869.63;;
22768;SDS011;13001;51.968;5.918;2023-03-01T02:15:57;986.37;;;890.97;;
22768;SDS011;13001;51.968;5.918;2023-03-01T02:18:25;974.63;;;882.23;;
22768;SDS011;13001;51.968;5.918;2023-03-01T02:21:01;978.93;;;885.07;;
22768;SDS011;13001;51.968;5.918;2023-03-01T02:23:27;968.70;;;877.03;;
22768;SDS011;13001;51.968;5.918;2023-03-01T02:25:59;967.73;;;876.90;;
22768;SDS011;13001;51.968;5.918;2023-03-01T02:28:29;962.23;;;869.70;;
22768;SDS011;13001;51.968;5.918;2023-03-01T02:30:55;971.53;;;878.30;;
22768;SDS011;13001;51.968;5.918;2023-03-01T02:33:41;986.57;;;890.87;;
22768;SDS011;13001;51.968;5.918;2023-03-01T02:36:09;997.37;;;899.97;;
22768;SDS011;13001;51.968;5.918;2023-03-01T02:38:40;973.73;;;879.53;;
22768;SDS011;13001;51.968;5.918;2023-03-01T02:41:07;961.37;;;868.77;;
22768;SDS011;13001;51.968;5.918;2023-03-01T02:43:35;975.90;;;882.60;;
22768;SDS011;13001;51.968;5.918;2023-03-01T02:46:07;989.43;;;894.07;;
22768;SDS011;13001;51.968;5.918;2023-03-01T02:48:41;936.27;;;847.37;;
22768;SDS011;13001;51.968;5.918;2023-03-01T02:54:02;996.80;;;899.73;;
22768;SDS011;13001;51.968;5.918;2023-03-01T02:56:27;987.53;;;890.80;;
22768;SDS011;13001;51.968;5.918;2023-03-01T02:58:55;1003.93;;;905.07;;
22768;SDS011;13001;51.968;5.918;2023-03-01T03:01:25;1014.73;;;912.53;;
22768;SDS011;13001;51.968;5.918;2023-03-01T03:03:54;1014.13;;;912.63;;
22768;SDS011;13001;51.968;5.918;2023-03-01T03:06:21;1015.63;;;912.43;;
22768;SDS011;13001;51.968;5.918;2023-03-01T03:08:48;1000.10;;;900.70;;
22768;SDS011;13001;51.968;5.918;2023-03-01T03:11:16;996.90;;;895.90;;
22768;SDS011;13001;51.968;5.918;2023-03-01T03:13:43;999.80;;;902.10;;
22768;SDS011;13001;51.968;5.918;2023-03-01T03:16:12;997.23;;;898.27;;
22768;SDS011;13001;51.968;5.918;2023-03-01T03:18:40;1008.73;;;908.03;;
22768;SDS011;13001;51.968;5.918;2023-03-01T03:21:08;1017.93;;;915.07;;
22768;SDS011;13001;51.968;5.918;2023-03-01T03:23:37;1014.10;;;911.97;;
22768;SDS011;13001;51.968;5.918;2023-03-01T03:26:05;1015.67;;;915.03;;
22768;SDS011;13001;51.968;5.918;2023-03-01T03:28:32;998.17;;;900.67;;
22768;SDS011;13001;51.968;5.918;2023-03-01T03:31:00;974.60;;;882.70;;
22768;SDS011;13001;51.968;5.918;2023-03-01T03:33:30;985.10;;;889.80;;
22768;SDS011;13001;51.968;5.918;2023-03-01T03:35:58;995.13;;;898.50;;
22768;SDS011;13001;51.968;5.918;2023-03-01T03:38:25;974.90;;;882.77;;
22768;SDS011;13001;51.968;5.918;2023-03-01T03:40:59;984.53;;;889.43;;
22768;SDS011;13001;51.968;5.918;2023-03-01T03:43:22;971.23;;;879.73;;
22768;SDS011;13001;51.968;5.918;2023-03-01T03:45:50;975.83;;;882.80;;
22768;SDS011;13001;51.968;5.918;2023-03-01T03:48:17;985.40;;;890.57;;
22768;SDS011;13001;51.968;5.918;2023-03-01T03:50:52;990.40;;;893.90;;
22768;SDS011;13001;51.968;5.918;2023-03-01T03:53:20;964.60;;;874.00;;
22768;SDS011;13001;51.968;5.918;2023-03-01T03:55:47;924.40;;;838.93;;
22768;SDS011;13001;51.968;5.918;2023-03-01T03:58:15;971.27;;;880.00;;
22768;SDS011;13001;51.968;5.918;2023-03-01T04:00:44;976.60;;;884.63;;
22768;SDS011;13001;51.968;5.918;2023-03-01T04:03:13;983.63;;;888.07;;
22768;SDS011;13001;51.968;5.918;2023-03-01T04:05:41;962.30;;;872.60;;
22768;SDS011;13001;51.968;5.918;2023-03-01T04:08:08;959.53;;;870.67;;
22768;SDS011;13001;51.968;5.918;2023-03-01T04:10:40;959.83;;;869.90;;
22768;SDS011;13001;51.968;5.918;2023-03-01T04:13:09;971.77;;;879.70;;
22768;SDS011;13001;51.968;5.918;2023-03-01T04:15:36;956.30;;;864.00;;
22768;SDS011;13001;51.968;5.918;2023-03-01T04:18:04;954.37;;;866.37;;
22768;SDS011;13001;51.968;5.918;2023-03-01T04:20:33;963.63;;;872.90;;
22768;SDS011;13001;51.968;5.918;2023-03-01T04:23:05;978.53;;;885.17;;
22768;SDS011;13001;51.968;5.918;2023-03-01T04:25:47;949.97;;;862.97;;
22768;SDS011;13001;51.968;5.918;2023-03-01T04:28:21;979.10;;;884.73;;
22768;SDS011;13001;51.968;5.918;2023-03-01T04:30:51;957.50;;;867.93;;
22768;SDS011;13001;51.968;5.918;2023-03-01T04:33:19;945.33;;;858.10;;
22768;SDS011;13001;51.968;5.918;2023-03-01T04:35:46;967.20;;;875.87;;
22768;SDS011;13001;51.968;5.918;2023-03-01T04:38:16;977.83;;;883.27;;
22768;SDS011;13001;51.968;5.918;2023-03-01T04:40:44;975.53;;;882.50;;
22768;SDS011;13001;51.968;5.918;2023-03-01T04:43:12;913.40;;;829.37;;
22768;SDS011;13001;51.968;5.918;2023-03-01T04:45:44;963.10;;;873.43;;
22768;SDS011;13001;51.968;5.918;2023-03-01T04:48:11;969.57;;;877.13;;
22768;SDS011;13001;51.968;5.918;2023-03-01T04:50:38;947.27;;;859.93;;
22768;SDS011;13001;51.968;5.918;2023-03-01T04:53:05;973.07;;;881.13;;
22768;SDS011;13001;51.968;5.918;2023-03-01T04:55:33;911.73;;;829.67;;
22768;SDS011;13001;51.968;5.918;2023-03-01T04:58:00;943.10;;;854.80;;
22768;SDS011;13001;51.968;5.918;2023-03-01T05:00:27;939.73;;;854.90;;
22768;SDS011;13001;51.968;5.918;2023-03-01T05:03:00;952.33;;;863.90;;
22768;SDS011;13001;51.968;5.918;2023-03-01T05:05:25;908.10;;;827.77;;
22768;SDS011;13001;51.968;5.918;2023-03-01T05:07:58;946.57;;;859.20;;
22768;SDS011;13001;51.968;5.918;2023-03-01T05:10:21;956.63;;;867.70;;
22768;SDS011;13001;51.968;5.918;2023-03-01T05:12:49;912.27;;;831.43;;
22768;SDS011;13001;51.968;5.918;2023-03-01T05:15:18;938.40;;;853.23;;
22768;SDS011;13001;51.968;5.918;2023-03-01T05:17:48;962.87;;;873.47;;
22768;SDS011;13001;51.968;5.918;2023-03-01T05:20:15;961.20;;;871.67;;
22768;SDS011;13001;51.968;5.918;2023-03-01T05:22:42;964.37;;;873.80;;
22768;SDS011;13001;51.968;5.918;2023-03-01T05:25:11;926.43;;;841.93;;
22768;SDS011;13001;51.968;5.918;2023-03-01T05:27:40;887.37;;;810.67;;
22768;SDS011;13001;51.968;5.918;2023-03-01T05:30:08;912.03;;;831.17;;
22768;SDS011;13001;51.968;5.918;2023-03-01T05:32:47;951.13;;;863.50;;
22768;SDS011;13001;51.968;5.918;2023-03-01T05:35:15;861.90;;;787.67;;
22768;SDS011;13001;51.968;5.918;2023-03-01T05:37:43;889.37;;;813.87;;
22768;SDS011;13001;51.968;5.918;2023-03-01T05:40:12;870.37;;;796.33;;
22768;SDS011;13001;51.968;5.918;2023-03-01T05:42:44;868.37;;;795.63;;
22768;SDS011;13001;51.968;5.918;2023-03-01T05:45:12;877.13;;;803.13;;
22768;SDS011;13001;51.968;5.918;2023-03-01T05:47:40;900.43;;;819.83;;
22768;SDS011;13001;51.968;5.918;2023-03-01T05:50:12;916.13;;;834.27;;
22768;SDS011;13001;51.968;5.918;2023-03-01T05:52:39;919.63;;;838.33;;
22768;SDS011;13001;51.968;5.918;2023-03-01T05:55:07;917.23;;;835.23;;
22768;SDS011;13001;51.968;5.918;2023-03-01T05:57:34;940.10;;;855.17;;
22768;SDS011;13001;51.968;5.918;2023-03-01T06:00:02;874.23;;;799.37;;
22768;SDS011;13001;51.968;5.918;2023-03-01T06:02:29;866.47;;;793.33;;
22768;SDS011;13001;51.968;5.918;2023-03-01T06:04:57;855.40;;;783.43;;
22768;SDS011;13001;51.968;5.918;2023-03-01T06:07:24;847.03;;;776.83;;
22768;SDS011;13001;51.968;5.918;2023-03-01T06:09:52;905.53;;;824.53;;
22768;SDS011;13001;51.968;5.918;2023-03-01T06:12:20;895.87;;;817.67;;
22768;SDS011;13001;51.968;5.918;2023-03-01T06:14:47;942.70;;;858.27;;
22768;SDS011;13001;51.968;5.918;2023-03-01T06:17:14;939.30;;;854.50;;
22768;SDS011;13001;51.968;5.918;2023-03-01T06:19:42;938.20;;;853.73;;
22768;SDS011;13001;51.968;5.918;2023-03-01T06:22:09;855.60;;;784.17;;
22768;SDS011;13001;51.968;5.918;2023-03-01T06:24:36;871.90;;;798.03;;
22768;SDS011;13001;51.968;5.918;2023-03-01T06:27:04;898.87;;;822.10;;
22768;SDS011;13001;51.968;5.918;2023-03-01T06:29:31;903.63;;;825.13;;
22768;SDS011;13001;51.968;5.918;2023-03-01T06:31:59;931.50;;;848.47;;
22768;SDS011;13001;51.968;5.918;2023-03-01T06:34:27;947.77;;;862.33;;
22768;SDS011;13001;51.968;5.918;2023-03-01T06:36:54;839.10;;;770.60;;
22768;SDS011;13001;51.968;5.918;2023-03-01T06:39:21;878.40;;;804.87;;
22768;SDS011;13001;51.968;5.918;2023-03-01T06:41:49;864.47;;;793.10;;
22768;SDS011;13001;51.968;5.918;2023-03-01T06:44:16;812.57;;;744.47;;
22768;SDS011;13001;51.968;5.918;2023-03-01T06:46:43;821.80;;;750.23;;
22768;SDS011;13001;51.968;5.918;2023-03-01T06:49:10;833.87;;;755.40;;
22768;SDS011;13001;51.968;5.918;2023-03-01T06:51:38;918.27;;;819.73;;
22768;SDS011;13001;51.968;5.918;2023-03-01T06:54:05;809.47;;;724.70;;
22768;SDS011;13001;51.968;5.918;2023-03-01T06:56:32;889.57;;;789.03;;
22768;SDS011;13001;51.968;5.918;2023-03-01T06:59:00;579.02;;;535.48;;
22768;SDS011;13001;51.968;5.918;2023-03-01T07:01:29;708.55;;;652.90;;
22768;SDS011;13001;51.968;5.918;2023-03-01T07:03:56;723.33;;;663.72;;
22768;SDS011;13001;51.968;5.918;2023-03-01T07:06:24;633.70;;;582.85;;
22768;SDS011;13001;51.968;5.918;2023-03-01T07:08:51;453.38;;;417.77;;
22768;SDS011;13001;51.968;5.918;2023-03-01T07:11:19;338.80;;;317.10;;
22768;SDS011;13001;51.968;5.918;2023-03-01T07:13:46;177.82;;;166.50;;
22768;SDS011;13001;51.968;5.918;2023-03-01T07:16:13;281.02;;;263.80;;
22768;SDS011;13001;51.968;5.918;2023-03-01T07:18:41;280.55;;;263.95;;
22768;SDS011;13001;51.968;5.918;2023-03-01T07:21:09;302.75;;;284.25;;
22768;SDS011;13001;51.968;5.918;2023-03-01T07:23:37;360.95;;;336.92;;
22768;SDS011;13001;51.968;5.918;2023-03-01T07:26:04;343.57;;;321.52;;
22768;SDS011;13001;51.968;5.918;2023-03-01T07:28:31;338.27;;;317.93;;
22768;SDS011;13001;51.968;5.918;2023-03-01T07:31:05;370.73;;;347.93;;
22768;SDS011;13001;51.968;5.918;2023-03-01T07:33:29;450.47;;;422.37;;
22768;SDS011;13001;51.968;5.918;2023-03-01T07:35:57;201.32;;;189.52;;
22768;SDS011;13001;51.968;5.918;2023-03-01T07:38:25;185.93;;;174.35;;
22768;SDS011;13001;51.968;5.918;2023-03-01T07:40:53;166.20;;;155.83;;
22768;SDS011;13001;51.968;5.918;2023-03-01T07:43:20;143.37;;;134.80;;
22768;SDS011;13001;51.968;5.918;2023-03-01T07:45:47;119.97;;;112.77;;
22768;SDS011;13001;51.968;5.918;2023-03-01T07:48:14;125.80;;;117.43;;
22768;SDS011;13001;51.968;5.918;2023-03-01T07:50:42;124.60;;;116.77;;
22768;SDS011;13001;51.968;5.918;2023-03-01T07:53:10;121.57;;;113.90;;
22768;SDS011;13001;51.968;5.918;2023-03-01T07:55:37;110.43;;;103.87;;
22768;SDS011;13001;51.968;5.918;2023-03-01T07:58:04;113.53;;;106.77;;
22768;SDS011;13001;51.968;5.918;2023-03-01T08:00:32;107.30;;;101.23;;
22768;SDS011;13001;51.968;5.918;2023-03-01T08:02:59;103.03;;;97.00;;
22768;SDS011;13001;51.968;5.918;2023-03-01T08:05:27;80.80;;;75.80;;
22768;SDS011;13001;51.968;5.918;2023-03-01T08:07:55;52.88;;;49.77;;
22768;SDS011;13001;51.968;5.918;2023-03-01T08:10:23;63.92;;;60.00;;
22768;SDS011;13001;51.968;5.918;2023-03-01T08:12:51;83.78;;;78.87;;
22768;SDS011;13001;51.968;5.918;2023-03-01T08:15:19;110.05;;;103.78;;
22768;SDS011;13001;51.968;5.918;2023-03-01T08:17:48;126.25;;;118.97;;
22768;SDS011;13001;51.968;5.918;2023-03-01T08:20:16;155.63;;;146.70;;
22768;SDS011;13001;51.968;5.918;2023-03-01T08:22:44;157.18;;;147.98;;
22768;SDS011;13001;51.968;5.918;2023-03-01T08:25:11;150.65;;;142.07;;
22768;SDS011;13001;51.968;5.918;2023-03-01T08:27:38;139.73;;;131.67;;
22768;SDS011;13001;51.968;5.918;2023-03-01T08:30:06;130.90;;;123.38;;
22768;SDS011;13001;51.968;5.918;2023-03-01T08:32:38;133.47;;;125.58;;
22768;SDS011;13001;51.968;5.918;2023-03-01T08:35:03;141.35;;;133.10;;
22768;SDS011;13001;51.968;5.918;2023-03-01T08:37:32;133.35;;;125.35;;
22768;SDS011;13001;51.968;5.918;2023-03-01T08:39:59;122.75;;;115.52;;
22768;SDS011;13001;51.968;5.918;2023-03-01T08:42:27;130.90;;;123.30;;
22768;SDS011;13001;51.968;5.918;2023-03-01T08:44:54;121.22;;;114.10;;
22768;SDS011;13001;51.968;5.918;2023-03-01T08:47:23;150.97;;;142.22;;
22768;SDS011;13001;51.968;5.918;2023-03-01T08:49:50;156.43;;;147.10;;
22768;SDS011;13001;51.968;5.918;2023-03-01T08:52:17;139.10;;;131.07;;
22768;SDS011;13001;51.968;5.918;2023-03-01T08:54:44;171.30;;;161.47;;
22768;SDS011;13001;51.968;5.918;2023-03-01T08:57:12;192.35;;;180.75;;
22768;SDS011;13001;51.968;5.918;2023-03-01T08:59:39;195.73;;;184.07;;
22768;SDS011;13001;51.968;5.918;2023-03-01T09:02:10;208.28;;;196.07;;
22768;SDS011;13001;51.968;5.918;2023-03-01T09:04:35;221.18;;;208.38;;
22768;SDS011;13001;51.968;5.918;2023-03-01T09:07:02;213.80;;;201.50;;
22768;SDS011;13001;51.968;5.918;2023-03-01T09:09:30;226.10;;;212.95;;
22768;SDS011;13001;51.968;5.918;2023-03-01T09:11:57;210.48;;;198.40;;
22768;SDS011;13001;51.968;5.918;2023-03-01T09:14:24;211.32;;;199.32;;
22768;SDS011;13001;51.968;5.918;2023-03-01T09:16:52;197.53;;;186.18;;
22768;SDS011;13001;51.968;5.918;2023-03-01T09:19:19;174.97;;;164.85;;
22768;SDS011;13001;51.968;5.918;2023-03-01T09:21:46;240.68;;;227.07;;
22768;SDS011;13001;51.968;5.918;2023-03-01T09:24:21;210.88;;;198.72;;
22768;SDS011;13001;51.968;5.918;2023-03-01T09:26:48;216.75;;;204.75;;
22768;SDS011;13001;51.968;5.918;2023-03-01T09:29:15;150.63;;;142.10;;
22768;SDS011;13001;51.968;5.918;2023-03-01T09:31:43;127.12;;;119.70;;
22768;SDS011;13001;51.968;5.918;2023-03-01T09:34:10;131.87;;;124.18;;
22768;SDS011;13001;51.968;5.918;2023-03-01T09:36:37;167.40;;;157.23;;
22768;SDS011;13001;51.968;5.918;2023-03-01T09:39:05;121.97;;;114.65;;
22768;SDS011;13001;51.968;5.918;2023-03-01T09:46:55;143.63;;;134.77;;
22768;SDS011;13001;51.968;5.918;2023-03-01T09:49:24;145.20;;;136.10;;
22768;SDS011;13001;51.968;5.918;2023-03-01T09:52:01;94.47;;;88.43;;
22768;SDS011;13001;51.968;5.918;2023-03-01T09:54:47;113.70;;;106.60;;
22768;SDS011;13001;51.968;5.918;2023-03-01T09:57:25;111.83;;;104.37;;
22768;SDS011;13001;51.968;5.918;2023-03-01T10:00:01;113.83;;;106.57;;
22768;SDS011;13001;51.968;5.918;2023-03-01T10:02:38;147.57;;;137.53;;
22768;SDS011;13001;51.968;5.918;2023-03-01T10:05:26;146.40;;;136.40;;
22768;SDS011;13001;51.968;5.918;2023-03-01T10:08:14;164.57;;;153.40;;
22768;SDS011;13001;51.968;5.918;2023-03-01T10:10:37;124.33;;;116.07;;
22768;SDS011;13001;51.968;5.918;2023-03-01T10:13:17;129.83;;;120.90;;
22768;SDS011;13001;51.968;5.918;2023-03-01T10:15:48;108.93;;;101.93;;
22768;SDS011;13001;51.968;5.918;2023-03-01T10:18:19;136.00;;;127.53;;
22768;SDS011;13001;51.968;5.918;2023-03-01T10:20:52;154.77;;;144.37;;
22768;SDS011;13001;51.968;5.918;2023-03-01T10:23:22;175.27;;;163.43;;
22768;SDS011;13001;51.968;5.918;2023-03-01T10:25:54;220.40;;;205.03;;
22768;SDS011;13001;51.968;5.918;2023-03-01T10:31:14;116.90;;;109.53;;
22768;SDS011;13001;51.968;5.918;2023-03-01T10:33:44;137.77;;;129.00;;
22768;SDS011;13001;51.968;5.918;2023-03-01T10:36:13;103.83;;;97.53;;
22768;SDS011;13001;51.968;5.918;2023-03-01T10:38:58;108.20;;;101.50;;
22768;SDS011;13001;51.968;5.918;2023-03-01T10:41:24;138.43;;;129.63;;
22768;SDS011;13001;51.968;5.918;2023-03-01T10:43:57;154.87;;;144.73;;
22768;SDS011;13001;51.968;5.918;2023-03-01T10:46:33;160.50;;;150.80;;
22768;SDS011;13001;51.968;5.918;2023-03-01T10:49:25;172.83;;;161.43;;
22768;SDS011;13001;51.968;5.918;2023-03-01T10:51:51;196.87;;;183.23;;
22768;SDS011;13001;51.968;5.918;2023-03-01T10:54:21;178.07;;;166.40;;
22768;SDS011;13001;51.968;5.918;2023-03-01T10:56:57;104.53;;;98.27;;
22768;SDS011;13001;51.968;5.918;2023-03-01T10:59:30;129.40;;;121.53;;
22768;SDS011;13001;51.968;5.918;2023-03-01T11:02:04;125.63;;;117.70;;
22768;SDS011;13001;51.968;5.918;2023-03-01T11:07:31;147.07;;;137.57;;
22768;SDS011;13001;51.968;5.918;2023-03-01T11:10:08;133.63;;;125.07;;
22768;SDS011;13001;51.968;5.918;2023-03-01T11:12:32;115.87;;;108.73;;
22768;SDS011;13001;51.968;5.918;2023-03-01T11:15:00;133.13;;;124.50;;
22768;SDS011;13001;51.968;5.918;2023-03-01T11:17:29;141.07;;;132.03;;
22768;SDS011;13001;51.968;5.918;2023-03-01T11:20:00;235.20;;;218.10;;
22768;SDS011;13001;51.968;5.918;2023-03-01T11:23:04;132.40;;;123.73;;
22768;SDS011;13001;51.968;5.918;2023-03-01T11:25:21;159.57;;;149.20;;
22768;SDS011;13001;51.968;5.918;2023-03-01T11:27:50;157.97;;;147.30;;
22768;SDS011;13001;51.968;5.918;2023-03-01T11:30:24;169.50;;;158.03;;
22768;SDS011;13001;51.968;5.918;2023-03-01T11:33:05;238.93;;;221.23;;
22768;SDS011;13001;51.968;5.918;2023-03-01T11:36:24;112.40;;;105.27;;
22768;SDS011;13001;51.968;5.918;2023-03-01T11:38:23;172.90;;;161.67;;
22768;SDS011;13001;51.968;5.918;2023-03-01T11:58:04;171.03;;;159.53;;
22768;SDS011;13001;51.968;5.918;2023-03-01T12:01:03;149.30;;;139.63;;
22768;SDS011;13001;51.968;5.918;2023-03-01T12:06:46;230.13;;;213.53;;
22768;SDS011;13001;51.968;5.918;2023-03-01T12:09:26;270.80;;;250.03;;
22768;SDS011;13001;51.968;5.918;2023-03-01T12:14:55;174.40;;;163.07;;
22768;SDS011;13001;51.968;5.918;2023-03-01T12:17:35;134.67;;;126.30;;
22768;SDS011;13001;51.968;5.918;2023-03-01T12:28:41;151.03;;;141.27;;
22768;SDS011;13001;51.968;5.918;2023-03-01T12:31:27;287.47;;;266.50;;
22768;SDS011;13001;51.968;5.918;2023-03-01T12:34:30;216.73;;;200.33;;
22768;SDS011;13001;51.968;5.918;2023-03-01T12:37:11;262.63;;;242.67;;
22768;SDS011;13001;51.968;5.918;2023-03-01T12:39:42;152.40;;;142.30;;
22768;SDS011;13001;51.968;5.918;2023-03-01T12:50:50;162.47;;;151.90;;
22768;SDS011;13001;51.968;5.918;2023-03-01T12:53:31;279.83;;;259.07;;
22768;SDS011;13001;51.968;5.918;2023-03-01T12:56:01;155.37;;;144.90;;
22768;SDS011;13001;51.968;5.918;2023-03-01T12:58:39;139.73;;;131.03;;
22768;SDS011;13001;51.968;5.918;2023-03-01T13:03:48;175.37;;;163.53;;
22768;SDS011;13001;51.968;5.918;2023-03-01T13:07:15;227.67;;;211.60;;
22768;SDS011;13001;51.968;5.918;2023-03-01T13:09:19;106.43;;;99.77;;
22768;SDS011;13001;51.968;5.918;2023-03-01T13:12:02;113.93;;;106.97;;
22768;SDS011;13001;51.968;5.918;2023-03-01T13:17:07;176.33;;;163.90;;
22768;SDS011;13001;51.968;5.918;2023-03-01T13:19:33;158.80;;;148.67;;
22768;SDS011;13001;51.968;5.918;2023-03-01T13:22:24;171.07;;;159.53;;
22768;SDS011;13001;51.968;5.918;2023-03-01T13:24:39;306.83;;;282.87;;
22768;SDS011;13001;51.968;5.918;2023-03-01T13:29:48;154.13;;;144.07;;
22768;SDS011;13001;51.968;5.918;2023-03-01T13:32:21;139.90;;;131.00;;
22768;SDS011;13001;51.968;5.918;2023-03-01T13:34:51;129.23;;;121.00;;
22768;SDS011;13001;51.968;5.918;2023-03-01T13:37:29;168.13;;;156.63;;
22768;SDS011;13001;51.968;5.918;2023-03-01T13:39:56;161.23;;;150.80;;
22768;SDS011;13001;51.968;5.918;2023-03-01T13:42:32;170.10;;;158.90;;
22768;SDS011;13001;51.968;5.918;2023-03-01T13:45:16;128.93;;;120.70;;
22768;SDS011;13001;51.968;5.918;2023-03-01T13:47:47;192.20;;;178.80;;
22768;SDS011;13001;51.968;5.918;2023-03-01T13:50:29;248.97;;;230.87;;
22768;SDS011;13001;51.968;5.918;2023-03-01T13:53:02;124.63;;;116.87;;
22768;SDS011;13001;51.968;5.918;2023-03-01T13:55:41;135.97;;;127.40;;
22768;SDS011;13001;51.968;5.918;2023-03-01T13:58:22;194.73;;;181.47;;
22768;SDS011;13001;51.968;5.918;2023-03-01T14:01:05;168.17;;;156.53;;
22768;SDS011;13001;51.968;5.918;2023-03-01T14:03:28;139.70;;;130.90;;
22768;SDS011;13001;51.968;5.918;2023-03-01T14:06:07;153.80;;;143.90;;
22768;SDS011;13001;51.968;5.918;2023-03-01T14:08:37;202.37;;;189.00;;
22768;SDS011;13001;51.968;5.918;2023-03-01T14:19:31;186.93;;;174.43;;
22768;SDS011;13001;51.968;5.918;2023-03-01T14:22:02;185.00;;;172.50;;
22768;SDS011;13001;51.968;5.918;2023-03-01T14:24:40;122.47;;;114.37;;
22768;SDS011;13001;51.968;5.918;2023-03-01T14:27:15;156.50;;;146.23;;
22768;SDS011;13001;51.968;5.918;2023-03-01T14:29:39;176.57;;;164.93;;
22768;SDS011;13001;51.968;5.918;2023-03-01T14:32:11;309.60;;;286.03;;
22768;SDS011;13001;51.968;5.918;2023-03-01T14:34:46;114.80;;;107.87;;
22768;SDS011;13001;51.968;5.918;2023-03-01T14:39:46;136.57;;;127.87;;
22768;SDS011;13001;51.968;5.918;2023-03-01T14:42:15;200.67;;;187.50;;
22768;SDS011;13001;51.968;5.918;2023-03-01T14:44:43;145.97;;;136.20;;
22768;SDS011;13001;51.968;5.918;2023-03-01T14:47:23;123.83;;;115.97;;
22768;SDS011;13001;51.968;5.918;2023-03-01T14:50:05;309.03;;;284.90;;
22768;SDS011;13001;51.968;5.918;2023-03-01T14:52:34;208.80;;;194.03;;
22768;SDS011;13001;51.968;5.918;2023-03-01T14:55:04;299.30;;;275.93;;
22768;SDS011;13001;51.968;5.918;2023-03-01T14:57:34;153.00;;;142.77;;
22768;SDS011;13001;51.968;5.918;2023-03-01T15:00:03;137.53;;;128.80;;
22768;SDS011;13001;51.968;5.918;2023-03-01T15:02:33;182.30;;;169.83;;
22768;SDS011;13001;51.968;5.918;2023-03-01T15:05:02;130.23;;;121.67;;
22768;SDS011;13001;51.968;5.918;2023-03-01T15:07:35;211.27;;;196.83;;
22768;SDS011;13001;51.968;5.918;2023-03-01T15:10:05;259.43;;;240.97;;
22768;SDS011;13001;51.968;5.918;2023-03-01T15:12:35;151.07;;;140.97;;
22768;SDS011;13001;51.968;5.918;2023-03-01T15:17:54;122.27;;;114.63;;
22768;SDS011;13001;51.968;5.918;2023-03-01T15:20:26;172.33;;;160.83;;
22768;SDS011;13001;51.968;5.918;2023-03-01T15:22:56;233.10;;;216.60;;
22768;SDS011;13001;51.968;5.918;2023-03-01T15:25:25;140.80;;;131.77;;
22768;SDS011;13001;51.968;5.918;2023-03-01T15:27:55;127.30;;;119.33;;